ADDS METAR Data INFO
IDs: Format: Raw Decoded Include TAF

Data at: 0510 UTC 23 May 2017

KMRF 230456Z AUTO 05017G21KT 10SM CLR 16/13 A3009 RMK AO2 SLP142 T01610133
KMRF 230356Z AUTO 02011KT 10SM CLR 17/11 A3007 RMK AO2 SLP140 T01720111
KMRF 230256Z AUTO 31004KT 10SM CLR 17/11 A3004 RMK AO2 SLP130 T01720111 51014
KMRF 230156Z AUTO 05012KT 10SM CLR 19/12 A3002 RMK AO2 WSHFT 0130 SLP124 T01890117
KMRF 230056Z AUTO 18006KT 10SM CLR 26/03 A2999 RMK AO2 SLP104 T02610028
KMRF 222356Z AUTO 36009KT 10SM BKN110 26/03 A3002 RMK AO2 PK WND 34035/2304 WSHFT 2252 LTG DSNT SE AND S SLP120 T02560028 10311 20228 53001
KMRF 222317Z AUTO 35023G32KT 10SM FEW120 26/03 A3000 RMK AO2 PK WND 34035/2304 WSHFT 2252 LTG DSNT NE
KMRF 222256Z AUTO 30023G31KT 9SM BKN120 29/02 A3000 RMK AO2 PK WND 30031/2252 WSHFT 2202 LTG DSNT N AND NE SLP107 T02890017
KMRF 222227Z AUTO 26013G17KT 10SM BKN120 30/03 A2999 RMK AO2 WSHFT 2202
KMRF 222156Z AUTO 22014G20KT 10SM BKN110 30/05 A2999 RMK AO2 SLP102 T03000050
KMRF 222056Z AUTO 14008G22KT 10SM SCT090 29/07 A3002 RMK AO2 SLP112 T02890067 58028
KMRF 221956Z AUTO 17007KT 10SM CLR 28/08 A3006 RMK AO2 SLP127 T02830078
KMRF 221856Z AUTO 21009KT 10SM CLR 26/12 A3009 RMK AO2 SLP139 T02560122
KMRF 221756Z AUTO VRB05G14KT 10SM CLR 23/14 A3011 RMK AO2 SLP151 6//// T02330144 10233 20083 58013
KMRF 221656Z AUTO VRB04KT 10SM FEW012 19/14 A3014 RMK AO2 SLP162 T01890139
KMRF 221642Z AUTO 21005KT 10SM SCT010 19/14 A3014 RMK AO2
KMRF 221615Z AUTO VRB04KT 10SM OVC006 17/14 A3015 RMK AO2 CIG 004V009
KMRF 221556Z AUTO VRB04KT 10SM OVC004 16/13 A3015 RMK AO2 SLP172 T01560133
KMRF 221526Z AUTO 00000KT 3SM BR OVC002 14/13 A3016 RMK AO2
KMRF 221518Z AUTO 00000KT 1 1/4SM BR OVC002 14/13 A3016 RMK AO2 VIS 3/4V2
KMRF 221456Z AUTO 00000KT 3/4SM BR OVC002 13/13 A3016 RMK AO2 SLP175 6//// T01330133 53008 RVRNO
KMRF 221403Z AUTO 17003KT 1/4SM FG OVC002 12/12 A3015 RMK AO2 TSNO RVRNO
KMRF 221356Z AUTO 17003KT 3/4SM BR OVC002 12/12 A3015 RMK AO2 SLP174 T01220122 RVRNO
KMRF 221344Z AUTO 17004KT 1/2SM FG OVC002 12/12 A3015 RMK AO2 RVRNO
KMRF 221335Z AUTO 15005KT 3/4SM BR OVC004 12/12 A3015 RMK AO2 CIG 002V006 RVRNO
KMRF 221331Z AUTO 17006KT 1 3/4SM BR OVC004 13/12 A3015 RMK AO2 CIG 002V006
KMRF 221307Z AUTO 34003KT 10SM BKN006 12/12 A3014 RMK AO2
KMRF 221256Z AUTO 00000KT 10SM CLR 11/11 A3014 RMK AO2 SLP168 T01110106
KMRF 221156Z AUTO 05005KT 10SM CLR 09/08 A3013 RMK AO2 SLP165 7//// T00890083 10128 20083 56006
KMRF 221056Z AUTO 04005KT 10SM CLR 08/08 A3013 RMK AO2 SLP162 T00830078
KMRF 220956Z AUTO 04005KT 10SM CLR 09/08 A3014 RMK AO2 SLP162 T00940083
KMRF 220856Z AUTO 33006KT 10SM CLR 09/09 A3015 RMK AO2 SLP170 T00940089 58009
KMRF 220756Z AUTO 34004KT 10SM CLR 10/09 A3016 RMK AO2 SLP174 T01000094
KMRF 220656Z AUTO 00000KT 10SM CLR 12/11 A3018 RMK AO2 SLP175 T01170106 402390117 TSNO
KMRF 220556Z AUTO 21003KT 10SM CLR 12/11 A3018 RMK AO2 SLP179 6//// T01220111 10200 20122 50006
KMRF 220456Z AUTO 14006KT 10SM CLR 14/12 A3018 RMK AO2 SLP179 T01390122
KMRF 220356Z AUTO 11005KT 10SM CLR 14/12 A3018 RMK AO2 SLP179 T01440122
KMRF 220256Z AUTO 11009KT 10SM CLR 15/12 A3016 RMK AO2 SLP173 6//// T01500122 51016 TSNO
KMRF 220156Z AUTO 12013KT 10SM CLR 16/13 A3014 RMK AO2 SLP165 T01560128
KMRF 220056Z AUTO 14013KT 10SM CLR 17/12 A3013 RMK AO2 SLP155 T01720122
KMRF 212356Z AUTO 13016KT 10SM CLR 20/12 A3011 RMK AO2 SLP147 6//// T02000122 10239 20200 55001
KMRF 212256Z AUTO 13011KT 10SM FEW001 22/11 A3010 RMK AO2 SLP138 T02220111
KMRF 212156Z AUTO 13009G16KT 10SM CLR 23/11 A3010 RMK AO2 SLP140 T02330111
KMRF 212056Z AUTO 12006KT 10SM CLR 22/11 A3011 RMK AO2 SLP147 6//// T02170111 58011
KMRF 211956Z AUTO 12007KT 10SM CLR 21/11 A3013 RMK AO2 SLP158 T02110106
KMRF 211856Z AUTO 12006KT 10SM CLR 22/10 A3014 RMK AO2 SLP161 T02170100
KMRF 211756Z AUTO 10005KT 10SM CLR 20/11 A3015 RMK AO2 SLP163 60044 T02000106 10200 20150


Page loaded:  05:10 UTC  |   10:10 PM Pacific  |   11:10 PM Mountain  |   12:10 AM Central  |   01:10 AM Eastern

 

ADVISORIES

FORECASTS

FORECASTS

OBSERVATIONS

USER TOOLS

ABOUT US